sensor_id;sensor_type;location;lat;lon;timestamp;P1;durP1;ratioP1;P2;durP2;ratioP2
24567;SDS011;12731;52.182;8.716;2024-01-27T00:01:56;20.13;;;3.55;;
24567;SDS011;12731;52.182;8.716;2024-01-27T00:04:22;27.42;;;3.72;;
24567;SDS011;12731;52.182;8.716;2024-01-27T00:06:50;20.55;;;3.45;;
24567;SDS011;12731;52.182;8.716;2024-01-27T00:09:17;21.20;;;3.75;;
24567;SDS011;12731;52.182;8.716;2024-01-27T00:11:43;20.27;;;4.28;;
24567;SDS011;12731;52.182;8.716;2024-01-27T00:14:10;19.92;;;3.72;;
24567;SDS011;12731;52.182;8.716;2024-01-27T00:16:36;24.73;;;3.85;;
24567;SDS011;12731;52.182;8.716;2024-01-27T00:19:02;19.65;;;3.95;;
24567;SDS011;12731;52.182;8.716;2024-01-27T00:21:29;21.45;;;4.10;;
24567;SDS011;12731;52.182;8.716;2024-01-27T00:23:56;19.38;;;3.90;;
24567;SDS011;12731;52.182;8.716;2024-01-27T00:26:27;23.05;;;3.58;;
24567;SDS011;12731;52.182;8.716;2024-01-27T00:28:54;21.15;;;3.75;;
24567;SDS011;12731;52.182;8.716;2024-01-27T00:31:20;19.02;;;3.63;;
24567;SDS011;12731;52.182;8.716;2024-01-27T00:33:47;21.92;;;3.90;;
24567;SDS011;12731;52.182;8.716;2024-01-27T00:36:13;20.15;;;3.42;;
24567;SDS011;12731;52.182;8.716;2024-01-27T00:38:40;24.30;;;3.92;;
24567;SDS011;12731;52.182;8.716;2024-01-27T00:41:06;24.42;;;4.25;;
24567;SDS011;12731;52.182;8.716;2024-01-27T00:43:33;15.88;;;3.78;;
24567;SDS011;12731;52.182;8.716;2024-01-27T00:45:59;30.02;;;4.38;;
24567;SDS011;12731;52.182;8.716;2024-01-27T00:48:26;19.23;;;3.85;;
24567;SDS011;12731;52.182;8.716;2024-01-27T00:50:53;27.95;;;4.47;;
24567;SDS011;12731;52.182;8.716;2024-01-27T00:53:19;20.13;;;3.47;;
24567;SDS011;12731;52.182;8.716;2024-01-27T00:55:46;23.20;;;3.67;;
24567;SDS011;12731;52.182;8.716;2024-01-27T00:58:12;16.98;;;3.97;;
24567;SDS011;12731;52.182;8.716;2024-01-27T01:00:38;25.17;;;4.03;;
24567;SDS011;12731;52.182;8.716;2024-01-27T01:03:05;22.63;;;3.78;;
24567;SDS011;12731;52.182;8.716;2024-01-27T01:05:31;22.85;;;3.75;;
24567;SDS011;12731;52.182;8.716;2024-01-27T01:07:58;23.85;;;3.70;;
24567;SDS011;12731;52.182;8.716;2024-01-27T01:10:24;28.08;;;4.25;;
24567;SDS011;12731;52.182;8.716;2024-01-27T01:12:52;19.55;;;4.32;;
24567;SDS011;12731;52.182;8.716;2024-01-27T01:15:19;21.70;;;3.78;;
24567;SDS011;12731;52.182;8.716;2024-01-27T01:17:45;18.77;;;4.05;;
24567;SDS011;12731;52.182;8.716;2024-01-27T01:20:12;21.73;;;3.58;;
24567;SDS011;12731;52.182;8.716;2024-01-27T01:22:38;20.50;;;3.80;;
24567;SDS011;12731;52.182;8.716;2024-01-27T01:25:05;20.65;;;3.55;;
24567;SDS011;12731;52.182;8.716;2024-01-27T01:27:32;20.17;;;4.00;;
24567;SDS011;12731;52.182;8.716;2024-01-27T01:29:58;22.05;;;3.92;;
24567;SDS011;12731;52.182;8.716;2024-01-27T01:32:25;20.83;;;3.80;;
24567;SDS011;12731;52.182;8.716;2024-01-27T01:34:51;19.42;;;3.55;;
24567;SDS011;12731;52.182;8.716;2024-01-27T01:37:17;19.05;;;3.50;;
24567;SDS011;12731;52.182;8.716;2024-01-27T01:39:44;27.63;;;4.53;;
24567;SDS011;12731;52.182;8.716;2024-01-27T01:42:10;23.17;;;3.92;;
24567;SDS011;12731;52.182;8.716;2024-01-27T01:44:37;18.15;;;3.50;;
24567;SDS011;12731;52.182;8.716;2024-01-27T01:47:03;23.08;;;4.03;;
24567;SDS011;12731;52.182;8.716;2024-01-27T01:49:30;19.20;;;3.92;;
24567;SDS011;12731;52.182;8.716;2024-01-27T01:51:57;23.38;;;4.10;;
24567;SDS011;12731;52.182;8.716;2024-01-27T01:54:24;25.42;;;3.80;;
24567;SDS011;12731;52.182;8.716;2024-01-27T01:56:55;20.52;;;4.00;;
24567;SDS011;12731;52.182;8.716;2024-01-27T01:59:21;23.10;;;4.18;;
24567;SDS011;12731;52.182;8.716;2024-01-27T02:01:48;18.73;;;4.20;;
24567;SDS011;12731;52.182;8.716;2024-01-27T02:04:15;16.90;;;3.17;;
24567;SDS011;12731;52.182;8.716;2024-01-27T02:06:41;24.05;;;3.90;;
24567;SDS011;12731;52.182;8.716;2024-01-27T02:09:08;20.05;;;3.70;;
24567;SDS011;12731;52.182;8.716;2024-01-27T02:11:36;14.98;;;3.72;;
24567;SDS011;12731;52.182;8.716;2024-01-27T02:14:02;20.65;;;3.92;;
24567;SDS011;12731;52.182;8.716;2024-01-27T02:16:29;23.17;;;4.13;;
24567;SDS011;12731;52.182;8.716;2024-01-27T02:18:55;22.80;;;4.50;;
24567;SDS011;12731;52.182;8.716;2024-01-27T02:21:22;21.08;;;3.42;;
24567;SDS011;12731;52.182;8.716;2024-01-27T02:23:49;17.92;;;3.50;;
24567;SDS011;12731;52.182;8.716;2024-01-27T02:26:15;17.67;;;3.72;;
24567;SDS011;12731;52.182;8.716;2024-01-27T02:28:42;20.90;;;4.05;;
24567;SDS011;12731;52.182;8.716;2024-01-27T02:31:08;16.35;;;3.70;;
24567;SDS011;12731;52.182;8.716;2024-01-27T02:33:35;27.67;;;4.32;;
24567;SDS011;12731;52.182;8.716;2024-01-27T02:36:01;23.67;;;4.50;;
24567;SDS011;12731;52.182;8.716;2024-01-27T02:38:28;22.17;;;4.43;;
24567;SDS011;12731;52.182;8.716;2024-01-27T02:40:54;22.23;;;4.25;;
24567;SDS011;12731;52.182;8.716;2024-01-27T02:43:21;20.40;;;3.70;;
24567;SDS011;12731;52.182;8.716;2024-01-27T02:45:47;15.05;;;3.92;;
24567;SDS011;12731;52.182;8.716;2024-01-27T02:48:14;18.00;;;3.67;;
24567;SDS011;12731;52.182;8.716;2024-01-27T02:50:40;19.05;;;3.92;;
24567;SDS011;12731;52.182;8.716;2024-01-27T02:53:07;21.27;;;4.32;;
24567;SDS011;12731;52.182;8.716;2024-01-27T02:55:33;20.15;;;4.65;;
24567;SDS011;12731;52.182;8.716;2024-01-27T02:57:59;15.77;;;4.05;;
24567;SDS011;12731;52.182;8.716;2024-01-27T03:00:26;20.08;;;3.95;;
24567;SDS011;12731;52.182;8.716;2024-01-27T03:02:52;22.42;;;4.07;;
24567;SDS011;12731;52.182;8.716;2024-01-27T03:05:20;16.65;;;3.83;;
24567;SDS011;12731;52.182;8.716;2024-01-27T03:07:46;16.02;;;3.92;;
24567;SDS011;12731;52.182;8.716;2024-01-27T03:10:13;18.83;;;4.18;;
24567;SDS011;12731;52.182;8.716;2024-01-27T03:12:39;17.38;;;3.78;;
24567;SDS011;12731;52.182;8.716;2024-01-27T03:15:06;21.48;;;4.43;;
24567;SDS011;12731;52.182;8.716;2024-01-27T03:17:33;19.92;;;4.00;;
24567;SDS011;12731;52.182;8.716;2024-01-27T03:19:59;23.73;;;4.35;;
24567;SDS011;12731;52.182;8.716;2024-01-27T03:22:25;21.13;;;4.78;;
24567;SDS011;12731;52.182;8.716;2024-01-27T03:24:52;18.70;;;3.70;;
24567;SDS011;12731;52.182;8.716;2024-01-27T03:27:21;18.48;;;4.70;;
24567;SDS011;12731;52.182;8.716;2024-01-27T03:29:47;15.60;;;4.93;;
24567;SDS011;12731;52.182;8.716;2024-01-27T03:32:14;17.55;;;4.88;;
24567;SDS011;12731;52.182;8.716;2024-01-27T03:34:43;21.15;;;4.20;;
24567;SDS011;12731;52.182;8.716;2024-01-27T03:37:11;18.63;;;4.82;;
24567;SDS011;12731;52.182;8.716;2024-01-27T03:39:37;25.15;;;5.07;;
24567;SDS011;12731;52.182;8.716;2024-01-27T03:42:04;21.23;;;5.03;;
24567;SDS011;12731;52.182;8.716;2024-01-27T03:44:30;20.55;;;4.90;;
24567;SDS011;12731;52.182;8.716;2024-01-27T03:46:57;24.13;;;5.20;;
24567;SDS011;12731;52.182;8.716;2024-01-27T03:49:23;18.52;;;5.10;;
24567;SDS011;12731;52.182;8.716;2024-01-27T03:51:50;20.92;;;4.85;;
24567;SDS011;12731;52.182;8.716;2024-01-27T03:54:16;27.42;;;5.75;;
24567;SDS011;12731;52.182;8.716;2024-01-27T03:56:43;19.50;;;5.18;;
24567;SDS011;12731;52.182;8.716;2024-01-27T03:59:09;26.83;;;5.60;;
24567;SDS011;12731;52.182;8.716;2024-01-27T04:01:37;20.45;;;5.75;;
24567;SDS011;12731;52.182;8.716;2024-01-27T04:04:04;24.52;;;5.03;;
24567;SDS011;12731;52.182;8.716;2024-01-27T04:06:35;24.30;;;5.22;;
24567;SDS011;12731;52.182;8.716;2024-01-27T04:09:03;16.75;;;5.63;;
24567;SDS011;12731;52.182;8.716;2024-01-27T04:11:30;26.77;;;6.05;;
24567;SDS011;12731;52.182;8.716;2024-01-27T04:13:56;22.75;;;5.45;;
24567;SDS011;12731;52.182;8.716;2024-01-27T04:16:23;17.55;;;5.97;;
24567;SDS011;12731;52.182;8.716;2024-01-27T04:18:49;21.20;;;5.47;;
24567;SDS011;12731;52.182;8.716;2024-01-27T04:21:16;24.42;;;5.88;;
24567;SDS011;12731;52.182;8.716;2024-01-27T04:23:43;26.67;;;5.88;;
24567;SDS011;12731;52.182;8.716;2024-01-27T04:26:09;19.63;;;6.00;;
24567;SDS011;12731;52.182;8.716;2024-01-27T04:28:36;21.17;;;6.05;;
24567;SDS011;12731;52.182;8.716;2024-01-27T04:31:03;23.27;;;6.03;;
24567;SDS011;12731;52.182;8.716;2024-01-27T04:33:30;20.00;;;6.18;;
24567;SDS011;12731;52.182;8.716;2024-01-27T04:35:56;20.08;;;5.57;;
24567;SDS011;12731;52.182;8.716;2024-01-27T04:38:23;24.63;;;5.65;;
24567;SDS011;12731;52.182;8.716;2024-01-27T04:40:50;21.75;;;5.63;;
24567;SDS011;12731;52.182;8.716;2024-01-27T04:43:17;19.50;;;5.57;;
24567;SDS011;12731;52.182;8.716;2024-01-27T04:45:44;17.48;;;6.38;;
24567;SDS011;12731;52.182;8.716;2024-01-27T04:48:11;23.33;;;5.78;;
24567;SDS011;12731;52.182;8.716;2024-01-27T04:50:37;20.33;;;5.93;;
24567;SDS011;12731;52.182;8.716;2024-01-27T04:53:04;21.48;;;6.40;;
24567;SDS011;12731;52.182;8.716;2024-01-27T04:55:30;23.23;;;6.93;;
24567;SDS011;12731;52.182;8.716;2024-01-27T04:57:57;16.17;;;6.50;;
24567;SDS011;12731;52.182;8.716;2024-01-27T05:00:25;23.50;;;6.78;;
24567;SDS011;12731;52.182;8.716;2024-01-27T05:02:53;19.50;;;6.80;;
24567;SDS011;12731;52.182;8.716;2024-01-27T05:05:20;26.52;;;6.75;;
24567;SDS011;12731;52.182;8.716;2024-01-27T05:07:46;21.92;;;7.00;;
24567;SDS011;12731;52.182;8.716;2024-01-27T05:10:17;22.15;;;6.10;;
24567;SDS011;12731;52.182;8.716;2024-01-27T05:12:43;22.80;;;6.72;;
24567;SDS011;12731;52.182;8.716;2024-01-27T05:15:10;24.17;;;6.97;;
24567;SDS011;12731;52.182;8.716;2024-01-27T05:17:36;21.08;;;6.80;;
24567;SDS011;12731;52.182;8.716;2024-01-27T05:20:03;22.65;;;6.82;;
24567;SDS011;12731;52.182;8.716;2024-01-27T05:22:30;22.23;;;6.85;;
24567;SDS011;12731;52.182;8.716;2024-01-27T05:24:57;20.15;;;7.15;;
24567;SDS011;12731;52.182;8.716;2024-01-27T05:27:23;21.55;;;7.18;;
24567;SDS011;12731;52.182;8.716;2024-01-27T05:29:50;30.02;;;7.93;;
24567;SDS011;12731;52.182;8.716;2024-01-27T05:32:16;17.10;;;7.22;;
24567;SDS011;12731;52.182;8.716;2024-01-27T05:34:42;25.10;;;7.72;;
24567;SDS011;12731;52.182;8.716;2024-01-27T05:37:09;25.38;;;7.82;;
24567;SDS011;12731;52.182;8.716;2024-01-27T05:39:35;19.23;;;8.15;;
24567;SDS011;12731;52.182;8.716;2024-01-27T05:42:02;31.70;;;8.95;;
24567;SDS011;12731;52.182;8.716;2024-01-27T05:44:29;20.80;;;9.45;;
24567;SDS011;12731;52.182;8.716;2024-01-27T05:46:55;22.25;;;9.68;;
24567;SDS011;12731;52.182;8.716;2024-01-27T05:49:22;29.40;;;10.02;;
24567;SDS011;12731;52.182;8.716;2024-01-27T05:51:49;24.90;;;9.77;;
24567;SDS011;12731;52.182;8.716;2024-01-27T05:54:16;22.15;;;9.02;;
24567;SDS011;12731;52.182;8.716;2024-01-27T05:56:43;22.13;;;8.52;;
24567;SDS011;12731;52.182;8.716;2024-01-27T05:59:09;22.73;;;8.60;;
24567;SDS011;12731;52.182;8.716;2024-01-27T06:01:35;18.67;;;7.72;;
24567;SDS011;12731;52.182;8.716;2024-01-27T06:04:02;21.45;;;7.30;;
24567;SDS011;12731;52.182;8.716;2024-01-27T06:06:29;21.38;;;7.75;;
24567;SDS011;12731;52.182;8.716;2024-01-27T06:08:55;20.08;;;8.30;;
24567;SDS011;12731;52.182;8.716;2024-01-27T06:11:25;26.38;;;8.90;;
24567;SDS011;12731;52.182;8.716;2024-01-27T06:13:52;24.77;;;8.40;;
24567;SDS011;12731;52.182;8.716;2024-01-27T06:16:18;22.58;;;7.80;;
24567;SDS011;12731;52.182;8.716;2024-01-27T06:18:47;20.15;;;8.25;;
24567;SDS011;12731;52.182;8.716;2024-01-27T06:21:14;19.95;;;8.02;;
24567;SDS011;12731;52.182;8.716;2024-01-27T06:23:40;20.60;;;7.45;;
24567;SDS011;12731;52.182;8.716;2024-01-27T06:26:07;25.83;;;8.13;;
24567;SDS011;12731;52.182;8.716;2024-01-27T06:28:34;22.35;;;8.07;;
24567;SDS011;12731;52.182;8.716;2024-01-27T06:31:02;15.68;;;7.35;;
24567;SDS011;12731;52.182;8.716;2024-01-27T06:33:29;29.48;;;9.20;;
24567;SDS011;12731;52.182;8.716;2024-01-27T06:35:56;18.75;;;7.90;;
24567;SDS011;12731;52.182;8.716;2024-01-27T06:38:22;21.45;;;8.38;;
24567;SDS011;12731;52.182;8.716;2024-01-27T06:40:49;23.75;;;9.48;;
24567;SDS011;12731;52.182;8.716;2024-01-27T06:43:15;21.65;;;9.10;;
24567;SDS011;12731;52.182;8.716;2024-01-27T06:45:42;19.58;;;9.27;;
24567;SDS011;12731;52.182;8.716;2024-01-27T06:48:08;21.15;;;8.30;;
24567;SDS011;12731;52.182;8.716;2024-01-27T06:50:35;18.10;;;8.77;;
24567;SDS011;12731;52.182;8.716;2024-01-27T06:53:01;24.83;;;9.60;;
24567;SDS011;12731;52.182;8.716;2024-01-27T06:55:28;20.10;;;8.98;;
24567;SDS011;12731;52.182;8.716;2024-01-27T06:57:54;24.63;;;10.30;;
24567;SDS011;12731;52.182;8.716;2024-01-27T07:00:21;26.77;;;10.82;;
24567;SDS011;12731;52.182;8.716;2024-01-27T07:02:48;26.55;;;10.30;;
24567;SDS011;12731;52.182;8.716;2024-01-27T07:05:14;29.65;;;10.27;;
24567;SDS011;12731;52.182;8.716;2024-01-27T07:07:41;21.77;;;10.43;;
24567;SDS011;12731;52.182;8.716;2024-01-27T07:10:08;29.67;;;10.07;;
24567;SDS011;12731;52.182;8.716;2024-01-27T07:12:34;22.13;;;10.70;;
24567;SDS011;12731;52.182;8.716;2024-01-27T07:15:01;27.17;;;10.73;;
24567;SDS011;12731;52.182;8.716;2024-01-27T07:17:28;28.65;;;10.63;;
24567;SDS011;12731;52.182;8.716;2024-01-27T07:19:55;25.48;;;11.27;;
24567;SDS011;12731;52.182;8.716;2024-01-27T07:22:22;26.50;;;11.80;;
24567;SDS011;12731;52.182;8.716;2024-01-27T07:24:48;27.63;;;11.25;;
24567;SDS011;12731;52.182;8.716;2024-01-27T07:27:17;26.50;;;11.98;;
24567;SDS011;12731;52.182;8.716;2024-01-27T07:29:45;30.33;;;12.40;;
24567;SDS011;12731;52.182;8.716;2024-01-27T07:32:11;29.88;;;12.32;;
24567;SDS011;12731;52.182;8.716;2024-01-27T07:34:42;27.88;;;12.90;;
24567;SDS011;12731;52.182;8.716;2024-01-27T07:37:09;23.15;;;12.38;;
24567;SDS011;12731;52.182;8.716;2024-01-27T07:39:36;31.67;;;13.43;;
24567;SDS011;12731;52.182;8.716;2024-01-27T07:42:03;26.45;;;13.85;;
24567;SDS011;12731;52.182;8.716;2024-01-27T07:44:29;30.10;;;13.38;;
24567;SDS011;12731;52.182;8.716;2024-01-27T07:46:56;27.85;;;12.90;;
24567;SDS011;12731;52.182;8.716;2024-01-27T07:49:22;29.27;;;11.85;;
24567;SDS011;12731;52.182;8.716;2024-01-27T07:51:49;21.67;;;12.15;;
24567;SDS011;12731;52.182;8.716;2024-01-27T07:54:15;26.25;;;12.60;;
24567;SDS011;12731;52.182;8.716;2024-01-27T07:56:42;24.20;;;12.50;;
24567;SDS011;12731;52.182;8.716;2024-01-27T07:59:08;28.38;;;13.48;;
24567;SDS011;12731;52.182;8.716;2024-01-27T08:01:41;23.77;;;12.45;;
24567;SDS011;12731;52.182;8.716;2024-01-27T08:04:07;29.73;;;13.32;;
24567;SDS011;12731;52.182;8.716;2024-01-27T08:06:45;31.92;;;13.90;;
24567;SDS011;12731;52.182;8.716;2024-01-27T08:09:16;27.70;;;13.60;;
24567;SDS011;12731;52.182;8.716;2024-01-27T08:11:43;27.65;;;13.00;;
24567;SDS011;12731;52.182;8.716;2024-01-27T08:14:09;29.95;;;13.48;;
24567;SDS011;12731;52.182;8.716;2024-01-27T08:16:36;28.67;;;13.68;;
24567;SDS011;12731;52.182;8.716;2024-01-27T08:19:02;33.03;;;13.63;;
24567;SDS011;12731;52.182;8.716;2024-01-27T08:21:29;26.50;;;12.82;;
24567;SDS011;12731;52.182;8.716;2024-01-27T08:23:56;26.90;;;12.75;;
24567;SDS011;12731;52.182;8.716;2024-01-27T08:26:22;28.50;;;13.60;;
24567;SDS011;12731;52.182;8.716;2024-01-27T08:28:49;28.77;;;12.85;;
24567;SDS011;12731;52.182;8.716;2024-01-27T08:31:15;31.92;;;12.70;;
24567;SDS011;12731;52.182;8.716;2024-01-27T08:33:41;24.75;;;12.73;;
24567;SDS011;12731;52.182;8.716;2024-01-27T08:36:12;28.23;;;12.82;;
24567;SDS011;12731;52.182;8.716;2024-01-27T08:38:39;29.10;;;12.98;;
24567;SDS011;12731;52.182;8.716;2024-01-27T08:41:06;30.42;;;12.85;;
24567;SDS011;12731;52.182;8.716;2024-01-27T08:43:32;27.95;;;12.88;;
24567;SDS011;12731;52.182;8.716;2024-01-27T08:45:58;28.65;;;12.45;;
24567;SDS011;12731;52.182;8.716;2024-01-27T08:48:26;34.35;;;12.32;;
24567;SDS011;12731;52.182;8.716;2024-01-27T08:50:53;25.55;;;12.38;;
24567;SDS011;12731;52.182;8.716;2024-01-27T08:53:19;24.92;;;11.80;;
24567;SDS011;12731;52.182;8.716;2024-01-27T08:55:46;28.58;;;12.63;;
24567;SDS011;12731;52.182;8.716;2024-01-27T08:58:12;28.00;;;12.27;;
24567;SDS011;12731;52.182;8.716;2024-01-27T09:00:38;30.77;;;13.13;;
24567;SDS011;12731;52.182;8.716;2024-01-27T09:03:05;29.13;;;12.70;;
24567;SDS011;12731;52.182;8.716;2024-01-27T09:05:32;25.38;;;12.52;;
24567;SDS011;12731;52.182;8.716;2024-01-27T09:07:58;26.20;;;12.27;;
24567;SDS011;12731;52.182;8.716;2024-01-27T09:10:25;27.15;;;12.13;;
24567;SDS011;12731;52.182;8.716;2024-01-27T09:12:51;27.90;;;11.40;;
24567;SDS011;12731;52.182;8.716;2024-01-27T09:15:18;30.23;;;12.40;;
24567;SDS011;12731;52.182;8.716;2024-01-27T09:17:44;26.42;;;11.35;;
24567;SDS011;12731;52.182;8.716;2024-01-27T09:20:11;28.13;;;12.45;;
24567;SDS011;12731;52.182;8.716;2024-01-27T09:22:37;23.35;;;11.13;;
24567;SDS011;12731;52.182;8.716;2024-01-27T09:25:04;26.90;;;11.98;;
24567;SDS011;12731;52.182;8.716;2024-01-27T09:27:31;30.40;;;11.93;;
24567;SDS011;12731;52.182;8.716;2024-01-27T09:29:57;27.70;;;12.45;;
24567;SDS011;12731;52.182;8.716;2024-01-27T09:32:24;27.52;;;11.20;;
24567;SDS011;12731;52.182;8.716;2024-01-27T09:34:50;23.63;;;12.20;;
24567;SDS011;12731;52.182;8.716;2024-01-27T09:37:20;28.50;;;11.55;;
24567;SDS011;12731;52.182;8.716;2024-01-27T09:39:46;23.05;;;10.80;;
24567;SDS011;12731;52.182;8.716;2024-01-27T09:42:13;24.45;;;12.05;;
24567;SDS011;12731;52.182;8.716;2024-01-27T09:44:42;22.63;;;11.57;;
24567;SDS011;12731;52.182;8.716;2024-01-27T09:47:13;23.92;;;11.07;;
24567;SDS011;12731;52.182;8.716;2024-01-27T09:49:39;31.23;;;12.00;;
24567;SDS011;12731;52.182;8.716;2024-01-27T09:52:09;24.95;;;10.98;;
24567;SDS011;12731;52.182;8.716;2024-01-27T09:54:36;29.20;;;10.65;;
24567;SDS011;12731;52.182;8.716;2024-01-27T09:57:02;27.92;;;10.60;;
24567;SDS011;12731;52.182;8.716;2024-01-27T09:59:29;30.50;;;10.57;;
24567;SDS011;12731;52.182;8.716;2024-01-27T10:01:57;23.67;;;10.30;;
24567;SDS011;12731;52.182;8.716;2024-01-27T10:04:24;23.38;;;10.45;;
24567;SDS011;12731;52.182;8.716;2024-01-27T10:06:51;28.20;;;10.10;;
24567;SDS011;12731;52.182;8.716;2024-01-27T10:09:18;24.38;;;10.23;;
24567;SDS011;12731;52.182;8.716;2024-01-27T10:11:45;21.73;;;9.90;;
24567;SDS011;12731;52.182;8.716;2024-01-27T10:14:14;25.80;;;10.57;;
24567;SDS011;12731;52.182;8.716;2024-01-27T10:16:43;25.83;;;11.30;;
24567;SDS011;12731;52.182;8.716;2024-01-27T10:19:17;23.58;;;9.52;;
24567;SDS011;12731;52.182;8.716;2024-01-27T10:21:45;19.15;;;9.48;;
24567;SDS011;12731;52.182;8.716;2024-01-27T10:24:12;25.02;;;10.48;;
24567;SDS011;12731;52.182;8.716;2024-01-27T10:26:39;25.63;;;9.57;;
24567;SDS011;12731;52.182;8.716;2024-01-27T10:29:05;22.42;;;9.32;;
24567;SDS011;12731;52.182;8.716;2024-01-27T10:31:33;24.80;;;9.98;;
24567;SDS011;12731;52.182;8.716;2024-01-27T10:34:00;26.45;;;10.15;;
24567;SDS011;12731;52.182;8.716;2024-01-27T10:36:42;25.48;;;9.73;;
24567;SDS011;12731;52.182;8.716;2024-01-27T10:39:15;27.80;;;9.95;;
24567;SDS011;12731;52.182;8.716;2024-01-27T10:41:46;20.20;;;8.55;;
24567;SDS011;12731;52.182;8.716;2024-01-27T10:44:13;26.40;;;9.85;;
24567;SDS011;12731;52.182;8.716;2024-01-27T10:46:44;19.55;;;8.05;;
24567;SDS011;12731;52.182;8.716;2024-01-27T10:49:13;21.17;;;8.45;;
24567;SDS011;12731;52.182;8.716;2024-01-27T10:51:45;23.27;;;8.30;;
24567;SDS011;12731;52.182;8.716;2024-01-27T10:54:18;18.25;;;8.40;;
24567;SDS011;12731;52.182;8.716;2024-01-27T10:56:46;18.85;;;7.90;;
24567;SDS011;12731;52.182;8.716;2024-01-27T10:59:13;22.10;;;8.85;;
24567;SDS011;12731;52.182;8.716;2024-01-27T11:01:41;26.08;;;9.23;;
24567;SDS011;12731;52.182;8.716;2024-01-27T11:04:08;17.67;;;7.57;;
24567;SDS011;12731;52.182;8.716;2024-01-27T11:06:37;26.27;;;8.93;;
24567;SDS011;12731;52.182;8.716;2024-01-27T11:09:04;19.33;;;7.85;;
24567;SDS011;12731;52.182;8.716;2024-01-27T11:11:31;21.13;;;8.82;;
24567;SDS011;12731;52.182;8.716;2024-01-27T11:13:58;22.88;;;7.40;;
24567;SDS011;12731;52.182;8.716;2024-01-27T11:16:24;25.90;;;8.35;;
24567;SDS011;12731;52.182;8.716;2024-01-27T11:18:51;22.73;;;7.93;;
24567;SDS011;12731;52.182;8.716;2024-01-27T11:21:18;20.67;;;7.07;;
24567;SDS011;12731;52.182;8.716;2024-01-27T11:23:44;24.23;;;7.38;;
24567;SDS011;12731;52.182;8.716;2024-01-27T11:26:17;19.70;;;7.53;;
24567;SDS011;12731;52.182;8.716;2024-01-27T11:28:45;24.42;;;8.10;;
24567;SDS011;12731;52.182;8.716;2024-01-27T11:31:12;22.20;;;7.00;;
24567;SDS011;12731;52.182;8.716;2024-01-27T11:33:42;14.55;;;6.35;;
24567;SDS011;12731;52.182;8.716;2024-01-27T11:36:17;17.55;;;6.32;;
24567;SDS011;12731;52.182;8.716;2024-01-27T11:38:49;17.85;;;7.10;;
24567;SDS011;12731;52.182;8.716;2024-01-27T11:41:23;19.13;;;6.57;;
24567;SDS011;12731;52.182;8.716;2024-01-27T11:43:59;20.77;;;6.65;;
24567;SDS011;12731;52.182;8.716;2024-01-27T11:46:26;14.95;;;6.20;;
24567;SDS011;12731;52.182;8.716;2024-01-27T11:48:52;23.58;;;6.93;;
24567;SDS011;12731;52.182;8.716;2024-01-27T11:51:19;18.52;;;5.68;;
24567;SDS011;12731;52.182;8.716;2024-01-27T11:53:46;17.38;;;6.60;;
24567;SDS011;12731;52.182;8.716;2024-01-27T11:56:13;16.15;;;6.72;;
24567;SDS011;12731;52.182;8.716;2024-01-27T11:58:45;18.20;;;5.40;;
24567;SDS011;12731;52.182;8.716;2024-01-27T12:01:12;22.75;;;7.18;;
24567;SDS011;12731;52.182;8.716;2024-01-27T12:03:39;15.48;;;6.68;;
24567;SDS011;12731;52.182;8.716;2024-01-27T12:06:10;16.73;;;6.05;;
24567;SDS011;12731;52.182;8.716;2024-01-27T12:08:40;21.02;;;7.15;;
24567;SDS011;12731;52.182;8.716;2024-01-27T12:11:13;21.98;;;7.38;;
24567;SDS011;12731;52.182;8.716;2024-01-27T12:13:42;21.52;;;7.50;;
24567;SDS011;12731;52.182;8.716;2024-01-27T12:16:08;19.00;;;6.13;;
24567;SDS011;12731;52.182;8.716;2024-01-27T12:18:35;16.25;;;5.95;;
24567;SDS011;12731;52.182;8.716;2024-01-27T12:21:02;15.65;;;6.00;;
24567;SDS011;12731;52.182;8.716;2024-01-27T12:23:28;14.15;;;5.35;;
24567;SDS011;12731;52.182;8.716;2024-01-27T12:25:55;16.73;;;5.82;;
24567;SDS011;12731;52.182;8.716;2024-01-27T12:28:22;17.95;;;5.90;;
24567;SDS011;12731;52.182;8.716;2024-01-27T12:30:52;14.00;;;4.93;;
24567;SDS011;12731;52.182;8.716;2024-01-27T12:33:19;14.65;;;5.78;;
24567;SDS011;12731;52.182;8.716;2024-01-27T12:35:51;17.90;;;5.70;;
24567;SDS011;12731;52.182;8.716;2024-01-27T12:38:20;17.17;;;5.55;;
24567;SDS011;12731;52.182;8.716;2024-01-27T12:40:46;15.43;;;5.43;;
24567;SDS011;12731;52.182;8.716;2024-01-27T12:43:13;13.40;;;4.82;;
24567;SDS011;12731;52.182;8.716;2024-01-27T12:45:40;14.70;;;4.85;;
24567;SDS011;12731;52.182;8.716;2024-01-27T12:48:07;16.88;;;5.18;;
24567;SDS011;12731;52.182;8.716;2024-01-27T12:50:33;15.10;;;5.45;;
24567;SDS011;12731;52.182;8.716;2024-01-27T12:53:00;16.58;;;5.38;;
24567;SDS011;12731;52.182;8.716;2024-01-27T12:55:26;14.90;;;4.80;;
24567;SDS011;12731;52.182;8.716;2024-01-27T12:57:53;13.20;;;4.47;;
24567;SDS011;12731;52.182;8.716;2024-01-27T13:00:19;14.07;;;4.82;;
24567;SDS011;12731;52.182;8.716;2024-01-27T13:02:46;15.32;;;4.70;;
24567;SDS011;12731;52.182;8.716;2024-01-27T13:05:12;16.13;;;4.75;;
24567;SDS011;12731;52.182;8.716;2024-01-27T13:07:39;23.13;;;5.43;;
24567;SDS011;12731;52.182;8.716;2024-01-27T13:10:06;21.85;;;5.95;;
24567;SDS011;12731;52.182;8.716;2024-01-27T13:12:32;12.10;;;4.50;;
24567;SDS011;12731;52.182;8.716;2024-01-27T13:14:59;18.52;;;4.90;;
24567;SDS011;12731;52.182;8.716;2024-01-27T13:17:25;17.05;;;5.18;;
24567;SDS011;12731;52.182;8.716;2024-01-27T13:19:52;13.02;;;4.03;;
24567;SDS011;12731;52.182;8.716;2024-01-27T13:22:19;18.00;;;4.70;;
24567;SDS011;12731;52.182;8.716;2024-01-27T13:24:53;11.60;;;4.03;;
24567;SDS011;12731;52.182;8.716;2024-01-27T13:27:20;16.63;;;4.78;;
24567;SDS011;12731;52.182;8.716;2024-01-27T13:29:47;15.32;;;4.57;;
24567;SDS011;12731;52.182;8.716;2024-01-27T13:32:14;16.65;;;4.60;;
24567;SDS011;12731;52.182;8.716;2024-01-27T13:34:40;16.33;;;4.25;;
24567;SDS011;12731;52.182;8.716;2024-01-27T13:37:07;15.27;;;3.97;;
24567;SDS011;12731;52.182;8.716;2024-01-27T13:39:35;19.08;;;4.68;;
24567;SDS011;12731;52.182;8.716;2024-01-27T13:42:01;18.02;;;4.60;;
24567;SDS011;12731;52.182;8.716;2024-01-27T13:44:28;13.65;;;4.22;;
24567;SDS011;12731;52.182;8.716;2024-01-27T13:46:56;16.30;;;4.88;;
24567;SDS011;12731;52.182;8.716;2024-01-27T13:49:26;15.32;;;4.97;;
24567;SDS011;12731;52.182;8.716;2024-01-27T13:51:53;15.48;;;4.80;;
24567;SDS011;12731;52.182;8.716;2024-01-27T13:54:19;18.70;;;4.53;;
24567;SDS011;12731;52.182;8.716;2024-01-27T13:56:46;15.93;;;4.45;;
24567;SDS011;12731;52.182;8.716;2024-01-27T13:59:12;16.60;;;4.75;;
24567;SDS011;12731;52.182;8.716;2024-01-27T14:01:39;13.88;;;4.40;;
24567;SDS011;12731;52.182;8.716;2024-01-27T14:04:06;14.50;;;3.85;;
24567;SDS011;12731;52.182;8.716;2024-01-27T14:06:34;15.18;;;4.57;;
24567;SDS011;12731;52.182;8.716;2024-01-27T14:09:01;15.82;;;4.72;;
24567;SDS011;12731;52.182;8.716;2024-01-27T14:11:28;15.85;;;4.20;;
24567;SDS011;12731;52.182;8.716;2024-01-27T14:13:54;17.50;;;5.60;;
24567;SDS011;12731;52.182;8.716;2024-01-27T14:16:21;17.95;;;4.30;;
24567;SDS011;12731;52.182;8.716;2024-01-27T14:18:48;15.70;;;4.50;;
24567;SDS011;12731;52.182;8.716;2024-01-27T14:21:15;14.60;;;4.80;;
24567;SDS011;12731;52.182;8.716;2024-01-27T14:23:41;13.88;;;4.03;;
24567;SDS011;12731;52.182;8.716;2024-01-27T14:26:08;13.05;;;4.25;;
24567;SDS011;12731;52.182;8.716;2024-01-27T14:31:07;12.15;;;3.72;;
24567;SDS011;12731;52.182;8.716;2024-01-27T14:33:34;17.27;;;4.93;;